createdAt,value
2016-07-17T00:00:21.852Z,99.99
2016-07-17T00:01:21.892Z,99.99
2016-07-17T00:02:21.854Z,99.99
2016-07-17T00:03:21.882Z,99.99
2016-07-17T00:04:21.935Z,99.99
2016-07-17T00:05:21.950Z,99.99
2016-07-17T00:06:21.869Z,99.99
2016-07-17T00:07:22.018Z,99.99
2016-07-17T00:08:22.006Z,99.99
2016-07-17T00:09:21.883Z,99.99
2016-07-17T00:10:21.878Z,99.99
2016-07-17T00:11:21.900Z,99.99
2016-07-17T00:12:21.912Z,99.99
2016-07-17T00:13:21.893Z,99.99
2016-07-17T00:14:21.889Z,99.99
2016-07-17T00:15:21.957Z,99.99
2016-07-17T00:16:21.901Z,99.99
2016-07-17T00:17:21.970Z,99.99
2016-07-17T00:18:21.905Z,99.99
2016-07-17T00:19:21.971Z,99.99
2016-07-17T00:20:21.918Z,99.99
2016-07-17T00:21:21.914Z,99.99
2016-07-17T00:22:21.929Z,99.99
2016-07-17T00:23:21.925Z,99.99
2016-07-17T00:24:22.151Z,99.99
2016-07-17T00:25:21.990Z,99.99
2016-07-17T00:26:21.947Z,99.99
2016-07-17T00:27:21.932Z,99.99
2016-07-17T00:28:21.940Z,99.99
2016-07-17T00:29:22.029Z,99.99
2016-07-17T00:30:22.045Z,99.99
2016-07-17T00:31:22.015Z,99.99
2016-07-17T00:32:21.939Z,99.99
2016-07-17T00:33:21.947Z,99.99
2016-07-17T00:34:22.014Z,99.99
2016-07-17T00:35:21.943Z,99.99
2016-07-17T00:36:21.952Z,99.99
2016-07-17T00:37:21.996Z,99.99
2016-07-17T00:38:22.032Z,99.99
2016-07-17T00:39:21.971Z,99.99
2016-07-17T00:40:21.962Z,99.99
2016-07-17T00:41:22.039Z,99.99
2016-07-17T00:42:22.037Z,99.99
2016-07-17T00:43:22.037Z,99.99
2016-07-17T00:44:22.086Z,99.99
2016-07-17T00:45:22.050Z,99.99
2016-07-17T00:46:21.980Z,99.99
2016-07-17T00:47:22.056Z,99.99
2016-07-17T00:48:22.029Z,99.99
2016-07-17T00:49:22.054Z,99.99
2016-07-17T00:50:21.989Z,99.99
2016-07-17T00:51:22.067Z,99.99
2016-07-17T00:52:22.068Z,99.99
2016-07-17T00:53:22.007Z,99.99
2016-07-17T00:54:22.108Z,99.99
2016-07-17T00:55:22.012Z,99.99
2016-07-17T00:56:22.082Z,99.99
2016-07-17T00:57:22.039Z,99.99
2016-07-17T00:58:22.034Z,99.99
2016-07-17T00:59:22.095Z,99.99
2016-07-17T01:00:22.088Z,99.99
2016-07-17T01:01:22.025Z,99.99
2016-07-17T01:02:22.033Z,99.99
2016-07-17T01:03:22.096Z,99.99
2016-07-17T01:04:22.108Z,99.99
2016-07-17T01:05:22.032Z,99.99
2016-07-17T01:06:22.105Z,99.99
2016-07-17T01:07:22.036Z,99.99
2016-07-17T01:08:22.118Z,99.99
2016-07-17T01:09:22.110Z,99.99
2016-07-17T01:10:22.044Z,99.99
2016-07-17T01:11:22.122Z,99.99
2016-07-17T01:12:22.046Z,99.99
2016-07-17T01:13:22.138Z,99.99
2016-07-17T01:14:22.056Z,99.99
2016-07-17T01:15:22.135Z,99.99
2016-07-17T01:16:22.070Z,99.99
2016-07-17T01:17:22.069Z,99.99
2016-07-17T01:18:22.066Z,99.99
2016-07-17T01:19:22.072Z,99.99
2016-07-17T01:20:22.077Z,99.99
2016-07-17T01:21:22.083Z,99.99
2016-07-17T01:22:22.154Z,99.99
2016-07-17T01:23:22.088Z,99.99
2016-07-17T01:24:22.152Z,99.99
2016-07-17T01:25:22.091Z,99.99
2016-07-17T01:26:22.162Z,99.99
2016-07-17T01:27:22.197Z,99.99
2016-07-17T01:28:22.177Z,99.99
2016-07-17T01:29:22.100Z,99.99
2016-07-17T01:30:22.101Z,99.99
2016-07-17T01:31:22.104Z,99.99
2016-07-17T01:32:22.105Z,99.99
2016-07-17T01:33:22.112Z,99.99
2016-07-17T01:34:22.189Z,99.99
2016-07-17T01:35:22.119Z,99.99
2016-07-17T01:36:22.119Z,99.99
2016-07-17T01:37:22.204Z,99.99
2016-07-17T01:38:22.201Z,99.99
2016-07-17T01:39:22.126Z,99.99
2016-07-17T01:40:22.208Z,99.99
2016-07-17T01:41:22.134Z,99.99
2016-07-17T01:42:22.138Z,99.99
2016-07-17T01:43:22.212Z,99.99
2016-07-17T01:44:22.218Z,99.99
2016-07-17T01:45:22.152Z,99.99
2016-07-17T01:46:22.245Z,99.99
2016-07-17T01:47:22.146Z,99.99
2016-07-17T01:48:22.220Z,99.99
2016-07-17T01:49:22.223Z,99.99
2016-07-17T01:50:22.161Z,99.99
2016-07-17T01:51:22.237Z,99.99
2016-07-17T01:52:22.169Z,99.99
2016-07-17T01:53:22.173Z,99.99
2016-07-17T01:54:22.244Z,99.99
2016-07-17T01:55:22.175Z,99.99
2016-07-17T01:56:22.174Z,99.99
2016-07-17T01:57:22.256Z,99.99
2016-07-17T01:58:22.185Z,99.99
2016-07-17T01:59:22.192Z,99.99
2016-07-17T02:00:22.272Z,99.99
2016-07-17T02:01:22.265Z,99.99
2016-07-17T02:02:22.275Z,99.99
2016-07-17T02:03:22.284Z,99.99
2016-07-17T02:04:22.209Z,99.99
2016-07-17T02:05:22.890Z,99.99
2016-07-17T02:06:22.207Z,99.99
2016-07-17T02:07:22.212Z,99.99
2016-07-17T02:08:22.291Z,99.99
2016-07-17T02:09:22.218Z,99.99
2016-07-17T02:10:22.220Z,99.99
2016-07-17T02:11:22.221Z,99.99
2016-07-17T02:12:22.224Z,99.99
2016-07-17T02:13:22.294Z,99.99
2016-07-17T02:14:22.228Z,99.99
2016-07-17T02:15:22.295Z,99.99
2016-07-17T02:16:22.345Z,99.99
2016-07-17T02:17:22.247Z,99.99
2016-07-17T02:18:22.313Z,99.99
2016-07-17T02:19:22.249Z,99.99
2016-07-17T02:20:22.256Z,99.99
2016-07-17T02:21:22.324Z,99.99
2016-07-17T02:22:22.251Z,99.99
2016-07-17T02:23:22.320Z,99.99
2016-07-17T02:24:22.330Z,99.99
2016-07-17T02:25:22.260Z,99.99
2016-07-17T02:26:22.333Z,99.99
2016-07-17T02:27:22.268Z,99.99
2016-07-17T02:28:22.267Z,99.99
2016-07-17T02:29:22.335Z,99.99
2016-07-17T02:30:22.342Z,99.99
2016-07-17T02:31:22.274Z,99.99
2016-07-17T02:32:22.345Z,99.99
2016-07-17T02:33:22.350Z,99.99
2016-07-17T02:34:22.356Z,99.99
2016-07-17T02:35:22.365Z,99.99
2016-07-17T02:36:22.358Z,99.99
2016-07-17T02:37:22.293Z,99.99
2016-07-17T02:38:22.382Z,99.99
2016-07-17T02:39:22.414Z,99.99
2016-07-17T02:40:22.377Z,99.99
2016-07-17T02:41:22.310Z,99.99
2016-07-17T02:42:22.378Z,99.99
2016-07-17T02:43:22.315Z,99.99
2016-07-17T02:44:22.314Z,99.99
2016-07-17T02:45:22.322Z,99.99
2016-07-17T02:46:22.353Z,99.99
2016-07-17T02:47:22.407Z,99.99
2016-07-17T02:48:22.324Z,99.99
2016-07-17T02:49:22.329Z,99.99
2016-07-17T02:50:22.332Z,99.99
2016-07-17T02:51:22.405Z,99.99
2016-07-17T02:52:22.333Z,99.99
2016-07-17T02:53:22.409Z,99.99
2016-07-17T02:54:22.419Z,99.99
2016-07-17T02:55:22.371Z,99.99
2016-07-17T02:56:22.428Z,99.99
2016-07-17T02:57:22.347Z,99.99
2016-07-17T02:58:22.361Z,99.99
2016-07-17T02:59:22.358Z,99.99
2016-07-17T03:00:22.354Z,99.99
2016-07-17T03:01:22.369Z,99.99
2016-07-17T03:02:22.370Z,99.99
2016-07-17T03:03:22.449Z,99.99
2016-07-17T03:04:22.436Z,99.99
2016-07-17T03:05:22.367Z,99.99
2016-07-17T03:06:22.439Z,99.99
2016-07-17T03:07:22.393Z,99.99
2016-07-17T03:08:22.451Z,99.99
2016-07-17T03:09:22.388Z,99.99
2016-07-17T03:10:22.458Z,99.99
2016-07-17T03:11:22.394Z,99.99
2016-07-17T03:12:22.397Z,99.99
2016-07-17T03:13:22.479Z,99.99
2016-07-17T03:14:22.402Z,99.99
2016-07-17T03:15:22.468Z,99.99
2016-07-17T03:16:22.483Z,99.99
2016-07-17T03:17:22.488Z,99.99
2016-07-17T03:18:22.491Z,99.99
2016-07-17T03:19:22.424Z,99.99
2016-07-17T03:20:22.414Z,99.99
2016-07-17T03:21:22.490Z,99.99
2016-07-17T03:22:22.420Z,99.99
2016-07-17T03:23:22.491Z,99.99
2016-07-17T03:24:22.452Z,99.99
2016-07-17T03:25:22.429Z,99.99
2016-07-17T03:26:22.441Z,99.99
2016-07-17T03:27:22.510Z,99.99
2016-07-17T03:28:22.516Z,99.99
2016-07-17T03:29:22.512Z,99.99
2016-07-17T03:30:22.467Z,99.99
2016-07-17T03:31:22.443Z,99.99
2016-07-17T03:32:22.456Z,99.99
2016-07-17T03:33:22.458Z,99.99
2016-07-17T03:34:22.532Z,99.99
2016-07-17T03:35:22.540Z,99.99
2016-07-17T03:36:22.470Z,99.99
2016-07-17T03:37:22.540Z,99.99
2016-07-17T03:38:22.565Z,99.99
2016-07-17T03:39:22.545Z,99.99
2016-07-17T03:40:22.540Z,99.99
2016-07-17T03:41:22.550Z,99.99
2016-07-17T03:42:22.475Z,99.99
2016-07-17T03:43:22.492Z,99.99
2016-07-17T03:44:22.490Z,99.99
2016-07-17T03:45:22.558Z,99.99
2016-07-17T03:46:22.487Z,99.99
2016-07-17T03:47:22.571Z,99.99
2016-07-17T03:48:22.580Z,99.99
2016-07-17T03:49:22.628Z,99.99
2016-07-17T03:50:22.500Z,99.99
2016-07-17T03:51:22.515Z,99.99
2016-07-17T03:52:22.515Z,99.99
2016-07-17T03:53:22.511Z,99.99
2016-07-17T03:54:22.589Z,99.99
2016-07-17T03:55:22.596Z,99.99
2016-07-17T03:56:22.524Z,99.99
2016-07-17T03:57:22.521Z,99.99
2016-07-17T03:58:22.610Z,99.99
2016-07-17T03:59:22.537Z,99.99
2016-07-17T04:00:22.603Z,99.99
2016-07-17T04:01:22.602Z,99.99
2016-07-17T04:02:22.552Z,99.99
2016-07-17T04:03:22.616Z,99.99
2016-07-17T04:04:22.537Z,99.99
2016-07-17T04:05:22.616Z,99.99
2016-07-17T04:06:22.543Z,99.99
2016-07-17T04:07:22.645Z,99.99
2016-07-17T04:08:22.634Z,99.99
2016-07-17T04:09:22.561Z,99.99
2016-07-17T04:10:22.559Z,99.99
2016-07-17T04:11:22.561Z,99.99
2016-07-17T04:12:22.919Z,99.99
2016-07-17T04:13:22.628Z,99.99
2016-07-17T04:14:22.587Z,99.99
2016-07-17T04:15:22.575Z,99.99
2016-07-17T04:16:22.645Z,99.99
2016-07-17T04:17:22.574Z,99.99
2016-07-17T04:18:22.659Z,99.99
2016-07-17T04:19:22.658Z,99.99
2016-07-17T04:20:22.604Z,99.99
2016-07-17T04:21:22.695Z,99.99
2016-07-17T04:22:22.667Z,99.99
2016-07-17T04:23:22.593Z,99.99
2016-07-17T04:24:22.601Z,99.99
2016-07-17T04:25:22.683Z,99.99
2016-07-17T04:26:22.631Z,99.99
2016-07-17T04:27:22.687Z,99.99
2016-07-17T04:28:22.609Z,99.99
2016-07-17T04:29:22.685Z,99.99
2016-07-17T04:30:22.623Z,99.99
2016-07-17T04:31:22.684Z,99.99
2016-07-17T04:32:22.636Z,99.99
2016-07-17T04:33:22.698Z,99.99
2016-07-17T04:34:22.700Z,99.99
2016-07-17T04:35:22.701Z,99.99
2016-07-17T04:36:22.716Z,99.99
2016-07-17T04:37:22.707Z,99.99
2016-07-17T04:38:22.657Z,99.99
2016-07-17T04:39:22.639Z,99.99
2016-07-17T04:40:22.722Z,99.99
2016-07-17T04:41:22.721Z,99.99
2016-07-17T04:42:22.746Z,99.99
2016-07-17T04:43:22.719Z,99.99
2016-07-17T04:44:22.740Z,99.99
2016-07-17T04:45:22.734Z,99.99
2016-07-17T04:46:22.666Z,99.99
2016-07-17T04:47:22.709Z,99.99
2016-07-17T04:48:22.744Z,99.99
2016-07-17T04:49:22.672Z,99.99
2016-07-17T04:50:22.835Z,99.99
2016-07-17T04:51:22.680Z,99.99
2016-07-17T04:52:22.680Z,99.99
2016-07-17T04:53:22.688Z,99.99
2016-07-17T04:54:22.784Z,99.99
2016-07-17T04:55:22.690Z,99.99
2016-07-17T04:56:22.766Z,99.99
2016-07-17T04:57:22.770Z,99.99
2016-07-17T04:58:22.774Z,99.99
2016-07-17T04:59:22.702Z,99.99
2016-07-17T05:00:22.775Z,99.99
2016-07-17T05:01:22.713Z,99.99
2016-07-17T05:02:22.784Z,99.99
2016-07-17T05:03:22.781Z,99.99
2016-07-17T05:04:22.775Z,99.99
2016-07-17T05:05:22.832Z,99.99
2016-07-17T05:06:22.787Z,99.99
2016-07-17T05:07:22.727Z,99.99
2016-07-17T05:08:22.750Z,99.99
2016-07-17T05:09:22.802Z,99.99
2016-07-17T05:10:22.733Z,99.99
2016-07-17T05:11:22.814Z,99.99
2016-07-17T05:12:22.844Z,99.99
2016-07-17T05:13:22.843Z,99.99
2016-07-17T05:14:22.761Z,99.99
2016-07-17T05:15:22.816Z,99.99
2016-07-17T05:16:22.818Z,99.99
2016-07-17T05:17:22.840Z,99.99
2016-07-17T05:18:22.747Z,99.99
2016-07-17T05:19:22.822Z,99.99
2016-07-17T05:20:22.781Z,99.99
2016-07-17T05:21:22.772Z,99.99
2016-07-17T05:22:22.836Z,99.99
2016-07-17T05:23:22.847Z,99.99
2016-07-17T05:24:22.779Z,99.99
2016-07-17T05:25:22.836Z,99.99
2016-07-17T05:26:22.786Z,99.99
2016-07-17T05:27:22.775Z,99.99
2016-07-17T05:28:22.777Z,99.99
2016-07-17T05:29:22.791Z,99.99
2016-07-17T05:30:22.844Z,99.99
2016-07-17T05:31:22.790Z,99.99
2016-07-17T05:32:22.905Z,99.99
2016-07-17T05:33:22.794Z,99.99
2016-07-17T05:44:21.026Z,99.99
2016-07-17T05:45:21.095Z,99.99
2016-07-17T05:46:21.104Z,99.99
2016-07-17T05:47:21.095Z,99.99
2016-07-17T05:48:21.038Z,99.99
2016-07-17T05:49:21.114Z,99.99
2016-07-17T05:50:21.115Z,99.99
2016-07-17T05:51:21.042Z,99.99
2016-07-17T05:52:21.108Z,99.99
2016-07-17T05:53:21.117Z,99.99
2016-07-17T05:54:21.049Z,99.99
2016-07-17T05:55:21.138Z,99.99
2016-07-17T05:56:21.134Z,99.99
2016-07-17T05:57:21.075Z,99.99
2016-07-17T05:58:21.062Z,99.99
2016-07-17T05:59:21.065Z,99.99
2016-07-17T06:00:21.145Z,99.99
2016-07-17T06:01:21.083Z,99.99
2016-07-17T06:02:21.071Z,99.99
2016-07-17T06:03:21.154Z,99.99
2016-07-17T06:04:21.076Z,99.99
2016-07-17T06:05:21.080Z,99.99
2016-07-17T06:06:21.166Z,99.99
2016-07-17T06:07:21.163Z,99.99
2016-07-17T06:08:21.158Z,99.99
2016-07-17T06:09:21.097Z,99.99
2016-07-17T06:10:21.169Z,99.99
2016-07-17T06:11:21.172Z,99.99
2016-07-17T06:12:21.180Z,99.99
2016-07-17T06:13:21.188Z,99.99
2016-07-17T06:14:21.182Z,99.99
2016-07-17T06:15:21.185Z,99.99
2016-07-17T06:16:21.183Z,99.99
2016-07-17T06:17:21.187Z,99.99
2016-07-17T06:18:21.189Z,99.99
2016-07-17T06:19:21.190Z,99.99
2016-07-17T06:20:21.125Z,99.99
2016-07-17T06:21:21.203Z,99.99
2016-07-17T06:22:21.136Z,99.99
2016-07-17T06:23:21.216Z,99.99
2016-07-17T06:24:21.151Z,99.99
2016-07-17T06:25:21.212Z,99.99
2016-07-17T06:26:21.219Z,99.99
2016-07-17T06:27:21.153Z,99.99
2016-07-17T06:28:21.218Z,99.99
2016-07-17T06:29:21.155Z,99.99
2016-07-17T06:30:21.150Z,99.99
2016-07-17T06:31:21.234Z,99.99
2016-07-17T06:32:21.231Z,99.99
2016-07-17T06:33:21.160Z,99.99
2016-07-17T06:34:21.243Z,99.99
2016-07-17T06:35:21.168Z,99.99
2016-07-17T06:36:21.250Z,99.99
2016-07-17T06:37:21.250Z,99.99
2016-07-17T06:38:21.189Z,99.99
2016-07-17T06:39:21.247Z,99.99
2016-07-17T06:40:21.186Z,99.99
2016-07-17T06:41:21.257Z,99.99
2016-07-17T06:42:21.268Z,99.99
2016-07-17T06:43:21.238Z,99.99
2016-07-17T06:44:21.194Z,99.99
2016-07-17T06:45:21.288Z,99.99
2016-07-17T06:46:21.276Z,99.99
2016-07-17T06:47:21.290Z,99.99
2016-07-17T06:48:21.204Z,99.99
2016-07-17T06:49:21.276Z,99.99
2016-07-17T06:50:21.299Z,99.99
2016-07-17T06:51:21.214Z,99.99
2016-07-17T06:52:21.221Z,99.99
2016-07-17T06:53:21.288Z,99.99
2016-07-17T06:54:21.220Z,99.99
2016-07-17T06:55:21.295Z,99.99
2016-07-17T06:56:21.230Z,99.99
2016-07-17T06:57:21.298Z,99.99
2016-07-17T06:58:21.237Z,99.99
2016-07-17T06:59:21.314Z,99.99
2016-07-17T07:00:21.330Z,99.99
2016-07-17T07:01:21.240Z,99.99
2016-07-17T07:02:21.333Z,99.99
2016-07-17T07:03:21.317Z,99.99
2016-07-17T07:04:21.255Z,99.99
2016-07-17T07:05:21.334Z,99.99
2016-07-17T07:06:21.257Z,99.99
2016-07-17T07:07:21.336Z,99.99
2016-07-17T07:08:21.343Z,99.99
2016-07-17T07:09:21.353Z,99.99
2016-07-17T07:10:21.582Z,99.99
2016-07-17T07:11:21.618Z,99.99
2016-07-17T07:12:21.353Z,99.99
2016-07-17T07:13:21.284Z,99.99
2016-07-17T07:14:21.287Z,99.99
2016-07-17T07:15:21.364Z,99.99
2016-07-17T07:16:21.361Z,99.99
2016-07-17T07:17:21.291Z,99.99
2016-07-17T07:18:21.380Z,99.99
2016-07-17T07:19:21.308Z,99.99
2016-07-17T07:20:21.301Z,99.99
2016-07-17T07:21:21.378Z,99.99
2016-07-17T07:22:21.314Z,99.99
2016-07-17T07:23:21.303Z,99.99
2016-07-17T07:24:21.312Z,99.99
2016-07-17T07:25:21.319Z,99.99
2016-07-17T07:26:21.567Z,99.99
2016-07-17T07:27:21.413Z,99.99
2016-07-17T07:28:21.329Z,99.99
2016-07-17T07:29:21.323Z,99.99
2016-07-17T07:30:21.398Z,99.99
2016-07-17T07:31:21.411Z,99.99
2016-07-17T07:32:21.327Z,99.99
2016-07-17T07:33:21.343Z,99.99
2016-07-17T07:34:21.470Z,99.99
2016-07-17T07:35:21.348Z,99.99
2016-07-17T07:36:21.425Z,99.99
2016-07-17T07:37:21.353Z,99.99
2016-07-17T07:38:21.511Z,99.99
2016-07-17T07:39:21.431Z,99.99
2016-07-17T07:40:21.356Z,99.99
2016-07-17T07:41:21.460Z,99.99
2016-07-17T07:42:21.511Z,99.99
2016-07-17T07:43:21.436Z,99.99
2016-07-17T07:44:21.452Z,99.99
2016-07-17T07:45:21.453Z,99.99
2016-07-17T07:46:21.448Z,99.99
2016-07-17T07:47:21.385Z,99.99
2016-07-17T07:48:21.404Z,99.99
2016-07-17T07:49:21.411Z,99.99
2016-07-17T07:50:21.388Z,99.99
2016-07-17T07:51:21.384Z,99.99
2016-07-17T07:52:21.582Z,99.99
2016-07-17T07:53:21.395Z,99.99
2016-07-17T07:54:21.404Z,99.99
2016-07-17T07:55:21.467Z,99.99
2016-07-17T07:56:21.512Z,99.99
2016-07-17T07:57:21.399Z,99.99
2016-07-17T07:58:21.497Z,99.99
2016-07-17T07:59:21.481Z,99.99
2016-07-17T08:00:21.499Z,99.99
2016-07-17T08:01:21.420Z,99.99
2016-07-17T08:02:21.531Z,99.99
2016-07-17T08:03:21.493Z,99.99
2016-07-17T08:04:21.504Z,99.99
2016-07-17T08:05:21.427Z,99.99
2016-07-17T08:06:21.436Z,99.99
2016-07-17T08:07:21.432Z,99.99
2016-07-17T08:08:21.452Z,99.99
2016-07-17T08:09:21.512Z,99.99
2016-07-17T08:10:21.518Z,99.99
2016-07-17T08:11:21.515Z,99.99
2016-07-17T08:12:21.521Z,99.99
2016-07-17T08:13:21.491Z,99.99
2016-07-17T08:14:21.453Z,99.99
2016-07-17T08:15:21.457Z,99.99
2016-07-17T08:16:21.459Z,99.99
2016-07-17T08:17:21.461Z,99.99
2016-07-17T08:18:21.539Z,99.99
2016-07-17T08:19:21.472Z,99.99
2016-07-17T08:20:21.491Z,99.99
2016-07-17T08:21:21.568Z,99.99
2016-07-17T08:22:21.568Z,99.99
2016-07-17T08:23:21.561Z,99.99
2016-07-17T08:24:21.563Z,99.99
2016-07-17T08:25:21.488Z,99.99
2016-07-17T08:26:21.569Z,99.99
2016-07-17T08:27:21.592Z,99.99
2016-07-17T08:28:21.577Z,99.99
2016-07-17T08:29:21.527Z,99.99
2016-07-17T08:30:21.570Z,99.99
2016-07-17T08:31:21.578Z,99.99
2016-07-17T08:32:21.508Z,99.99
2016-07-17T08:33:21.526Z,99.99
2016-07-17T08:34:21.512Z,99.99
2016-07-17T08:35:21.602Z,99.99
2016-07-17T08:36:21.518Z,99.99
2016-07-17T08:37:21.597Z,99.99
2016-07-17T08:38:21.594Z,99.99
2016-07-17T08:39:21.540Z,99.99
2016-07-17T08:40:21.533Z,99.99
2016-07-17T08:41:21.528Z,99.99
2016-07-17T08:42:21.599Z,99.99
2016-07-17T08:43:21.544Z,99.99
2016-07-17T08:44:21.544Z,99.99
2016-07-17T08:45:21.619Z,99.99
2016-07-17T08:46:21.611Z,99.99
2016-07-17T08:47:21.554Z,99.99
2016-07-17T08:48:21.617Z,99.99
2016-07-17T08:49:21.556Z,99.99
2016-07-17T08:50:21.686Z,99.99
2016-07-17T08:51:21.637Z,99.99
2016-07-17T08:52:21.574Z,99.99
2016-07-17T08:53:21.650Z,99.99
2016-07-17T08:54:21.582Z,99.99
2016-07-17T08:55:21.578Z,99.99
2016-07-17T08:56:21.643Z,99.99
2016-07-17T08:57:21.673Z,99.99
2016-07-17T08:58:21.661Z,99.99
2016-07-17T08:59:21.661Z,99.99
2016-07-17T09:00:21.613Z,99.99
2016-07-17T09:01:21.595Z,99.99
2016-07-17T09:02:22.174Z,99.99
2016-07-17T09:03:21.593Z,99.99
2016-07-17T09:04:21.607Z,99.99
2016-07-17T09:05:21.681Z,99.99
2016-07-17T09:06:21.682Z,99.99
2016-07-17T09:17:20.218Z,99.99
2016-07-17T09:18:20.248Z,99.99
2016-07-17T09:19:20.220Z,99.99
2016-07-17T09:20:20.227Z,99.99
2016-07-17T09:21:20.297Z,99.99
2016-07-17T09:22:20.299Z,99.99
2016-07-17T09:23:20.291Z,99.99
2016-07-17T09:24:20.317Z,99.99
2016-07-17T09:25:20.311Z,99.99
2016-07-17T09:26:20.254Z,99.99
2016-07-17T09:27:20.237Z,99.99
2016-07-17T09:28:20.244Z,99.99
2016-07-17T09:29:20.336Z,99.99
2016-07-17T09:30:20.350Z,99.99
2016-07-17T09:31:20.257Z,99.99
2016-07-17T09:32:20.261Z,99.99
2016-07-17T09:33:20.270Z,99.99
2016-07-17T09:34:20.293Z,99.26
2016-07-17T09:35:20.266Z,99.45
2016-07-17T09:36:20.279Z,99.93
2016-07-17T09:37:20.276Z,99.74
2016-07-17T09:38:20.344Z,99.79
2016-07-17T09:39:20.349Z,99.5
2016-07-17T09:40:20.351Z,99.99
2016-07-17T09:41:20.367Z,99.99
2016-07-17T09:42:20.362Z,99.55
2016-07-17T09:43:20.289Z,99.74
2016-07-17T09:44:20.368Z,99.4
2016-07-17T09:45:20.306Z,98.73
2016-07-17T09:46:20.373Z,97.96
2016-07-17T09:47:20.300Z,97.57
2016-07-17T09:48:20.302Z,96.56
2016-07-17T09:49:20.309Z,95.59
2016-07-17T09:50:20.387Z,96.36
2016-07-17T09:51:20.348Z,95.25
2016-07-17T09:52:20.400Z,94.2
2016-07-17T09:53:20.316Z,93.27
2016-07-17T09:54:20.321Z,93.37
2016-07-17T09:55:20.396Z,93.37
2016-07-17T09:56:20.403Z,94.14
2016-07-17T09:57:20.413Z,93.56
2016-07-17T09:58:20.323Z,92.89
2016-07-17T09:59:20.408Z,93.95
2016-07-17T10:00:20.355Z,94.58
2016-07-17T10:01:20.340Z,93.71
2016-07-17T10:02:20.421Z,93.8
2016-07-17T10:03:20.370Z,92.94
2016-07-17T10:04:20.348Z,92.79
2016-07-17T10:05:20.361Z,92.98
2016-07-17T10:06:20.430Z,93.85
2016-07-17T10:07:20.367Z,93.42
2016-07-17T10:08:20.362Z,93.32
2016-07-17T10:09:20.436Z,91.92
2016-07-17T10:10:20.434Z,92.84
2016-07-17T10:11:20.368Z,93.13
2016-07-17T10:12:20.387Z,91.59
2016-07-17T10:13:20.414Z,92.26
2016-07-17T10:14:20.403Z,92.65
2016-07-17T10:15:20.518Z,92.46
2016-07-17T10:16:20.455Z,93.04
2016-07-17T10:17:20.492Z,92.55
2016-07-17T10:18:20.401Z,92.84
2016-07-17T10:19:20.457Z,93.13
2016-07-17T10:20:20.463Z,92.5
2016-07-17T10:21:20.411Z,91.35
2016-07-17T10:22:20.464Z,89.94
2016-07-17T10:23:20.511Z,90.23
2016-07-17T10:24:20.422Z,88.63
2016-07-17T10:25:20.405Z,88.57
2016-07-17T10:26:20.488Z,89.15
2016-07-17T10:27:20.494Z,90.33
2016-07-17T10:28:20.492Z,91.35
2016-07-17T10:29:20.426Z,90.86
2016-07-17T10:30:20.432Z,90.57
2016-07-17T10:31:20.519Z,89.45
2016-07-17T10:32:20.507Z,89.01
2016-07-17T10:33:20.451Z,89.45
2016-07-17T10:34:20.692Z,90.71
2016-07-17T10:35:20.522Z,91.53
2016-07-17T10:36:20.464Z,91.92
2016-07-17T10:37:20.521Z,91.88
2016-07-17T10:38:20.514Z,92.07
2016-07-17T10:39:20.494Z,92.36
2016-07-17T10:40:20.586Z,91.92
2016-07-17T10:41:20.456Z,91.53
2016-07-17T10:42:20.462Z,91.35
2016-07-17T10:43:20.557Z,91.09
2016-07-17T10:44:20.462Z,90.03
2016-07-17T10:45:20.571Z,88.63
2016-07-17T10:46:20.488Z,89.11
2016-07-17T10:47:20.648Z,89.11
2016-07-17T10:48:20.477Z,88.43
2016-07-17T10:49:20.572Z,88.15
2016-07-17T10:50:20.489Z,88.24
2016-07-17T10:51:20.507Z,87.99
2016-07-17T10:52:20.489Z,88.92
2016-07-17T10:53:20.511Z,90.33
2016-07-17T10:54:20.576Z,89.65
2016-07-17T10:55:20.595Z,89.84
2016-07-17T10:56:20.595Z,90.47
2016-07-17T10:57:20.544Z,91.05
2016-07-17T10:58:20.617Z,90.47
2016-07-17T10:59:20.560Z,90.57
2016-07-17T11:00:20.667Z,89.7
2016-07-17T11:01:20.647Z,90.52
2016-07-17T11:02:20.538Z,89.89
2016-07-17T11:03:20.627Z,91.44
2016-07-17T11:04:20.704Z,91.53
2016-07-17T11:05:20.610Z,91.3
2016-07-17T11:06:20.605Z,89.89
2016-07-17T11:07:20.600Z,89.65
2016-07-17T11:08:20.611Z,91.15
2016-07-17T11:09:20.604Z,90.91
2016-07-17T11:10:20.561Z,90.28
2016-07-17T11:11:20.577Z,91.05
2016-07-17T11:12:20.571Z,90.62
2016-07-17T11:13:20.569Z,90.91
2016-07-17T11:14:20.559Z,91.49
2016-07-17T11:15:20.682Z,90.91
2016-07-17T11:16:20.699Z,91.05
2016-07-17T11:17:20.684Z,90.09
2016-07-17T11:18:20.576Z,89.41
2016-07-17T11:19:20.583Z,89.89
2016-07-17T11:20:20.668Z,89.7
2016-07-17T11:21:20.577Z,88.45
2016-07-17T11:22:20.665Z,89.79
2016-07-17T11:23:20.597Z,89.31
2016-07-17T11:24:20.659Z,89.03
2016-07-17T11:25:20.611Z,89.22
2016-07-17T11:26:20.701Z,88.73
2016-07-17T11:27:20.683Z,88.83
2016-07-17T11:28:20.625Z,87.96
2016-07-17T11:29:20.623Z,86.65
2016-07-17T11:30:20.599Z,85.73
2016-07-17T11:31:20.613Z,84.9
2016-07-17T11:32:20.688Z,83.49
2016-07-17T11:33:20.695Z,83.4
2016-07-17T11:34:20.907Z,84.61
2016-07-17T11:35:20.710Z,84.8
2016-07-17T11:36:20.717Z,84.32
2016-07-17T11:37:20.653Z,85.48
2016-07-17T11:38:20.631Z,85.1
2016-07-17T11:39:20.700Z,85.1
2016-07-17T11:40:20.715Z,84.27
2016-07-17T11:41:20.727Z,82.95
2016-07-17T11:42:20.734Z,84.27
2016-07-17T11:43:20.653Z,85.1
2016-07-17T11:44:20.661Z,84.52
2016-07-17T11:45:20.757Z,86.35
2016-07-17T11:46:20.732Z,87.52
2016-07-17T11:47:20.676Z,86.46
2016-07-17T11:48:20.664Z,86.31
2016-07-17T11:49:20.672Z,86.21
2016-07-17T11:50:20.673Z,85.19
2016-07-17T11:51:20.680Z,83.59
2016-07-17T11:52:20.668Z,82.66
2016-07-17T11:53:20.703Z,83.34
2016-07-17T11:54:20.763Z,83.49
2016-07-17T11:55:20.685Z,84.36
2016-07-17T11:56:20.751Z,84.32
2016-07-17T11:57:20.685Z,83.59
2016-07-17T11:58:20.763Z,84.13
2016-07-17T11:59:20.752Z,84.03
2016-07-17T12:00:20.719Z,84.8
2016-07-17T12:01:20.792Z,83.59
2016-07-17T12:02:20.695Z,82.57
2016-07-17T12:03:20.773Z,80.28
2016-07-17T12:04:20.707Z,78.71
2016-07-17T12:05:20.715Z,77.69
2016-07-17T12:06:20.733Z,78.17
2016-07-17T12:07:20.714Z,78.17
2016-07-17T12:08:20.801Z,80.01
2016-07-17T12:09:20.792Z,80.52
2016-07-17T12:10:20.801Z,81.05
2016-07-17T12:11:20.721Z,80.22
2016-07-17T12:12:20.824Z,80.62
2016-07-17T12:13:20.720Z,79.55
2016-07-17T12:14:20.860Z,78.42
2016-07-17T12:15:20.740Z,79.32
2016-07-17T12:16:20.737Z,78.19
2016-07-17T12:17:20.745Z,77.32
2016-07-17T12:18:20.762Z,77.03
2016-07-17T12:19:20.820Z,77.22
2016-07-17T12:20:20.833Z,77.65
2016-07-17T12:21:20.758Z,77.26
2016-07-17T12:22:20.826Z,77.06
2016-07-17T12:23:20.852Z,76.97
2016-07-17T12:24:20.841Z,76.78
2016-07-17T12:25:20.772Z,77.36
2016-07-17T12:26:20.844Z,78.48
2016-07-17T12:27:20.837Z,80.05
2016-07-17T12:28:20.771Z,80.24
2016-07-17T12:29:20.849Z,80.49
2016-07-17T12:30:20.773Z,79.66
2016-07-17T12:31:20.864Z,80.05
2016-07-17T12:32:20.859Z,81.6
2016-07-17T12:33:20.777Z,81.04
2016-07-17T12:34:20.787Z,81.13
2016-07-17T12:35:20.787Z,81.23
2016-07-17T12:36:20.876Z,80.16
2016-07-17T12:37:20.875Z,80.59
2016-07-17T12:38:20.798Z,78.59
2016-07-17T12:39:20.795Z,78.25
2016-07-17T12:40:20.872Z,78.05
2016-07-17T12:41:20.803Z,78.15
2016-07-17T12:42:20.953Z,78.83
2016-07-17T12:43:20.818Z,78.15
2016-07-17T12:44:20.904Z,77.12
2016-07-17T12:45:20.823Z,77.22
2016-07-17T12:46:20.886Z,76.35
2016-07-17T12:47:20.893Z,76.64
2016-07-17T12:48:20.840Z,77.19
2016-07-17T12:49:20.858Z,76.12
2016-07-17T12:50:20.832Z,75.38
2016-07-17T12:51:20.846Z,75.09
2016-07-17T12:52:20.935Z,74.16
2016-07-17T12:53:20.852Z,73.03
2016-07-17T12:54:20.914Z,73.19
2016-07-17T12:55:21.040Z,72.93
2016-07-17T12:56:20.856Z,72.55
2016-07-17T12:57:20.934Z,72.49
2016-07-17T12:58:20.850Z,71.61
2016-07-17T12:59:20.930Z,72.03
2016-07-17T13:00:20.930Z,72.49
2016-07-17T13:01:20.935Z,72.09
2016-07-17T13:02:20.874Z,72.64
2016-07-17T13:03:20.871Z,72.39
2016-07-17T13:04:20.877Z,72.39
2016-07-17T13:05:20.877Z,71.64
2016-07-17T13:06:20.955Z,70.12
2016-07-17T13:07:20.896Z,70.26
2016-07-17T13:08:20.962Z,70.94
2016-07-17T13:09:20.963Z,70.51
2016-07-17T13:10:20.893Z,71.26
2016-07-17T13:11:20.969Z,71.45
2016-07-17T13:12:20.981Z,71.8
2016-07-17T13:13:20.902Z,72.35